Weather at Altoona Blair County Airport

Public forecast

Using degrees Fahrenheit for public forecast. Weather courtesy of forecast.io.

Current aviation weather report (METAR) for Altoona Blair County Airport

Retrieved 2020/11/30 10:30 UTC (0 seconds ago):

KAOO 301030Z AUTO 02005KT 3SM RA BR SCT002 BKN008 OVC041 06/04 A2972 RMK AO2 P0012 T00560039

Aviation forecast (TAF) for Altoona Blair County Airport

Retrieved 2020/11/30 06:42 UTC (3 hours ago):

TAF KAOO 300539Z 3006/0106 16003KT P6SM OVC050 FM300830 15006KT 5SM -RA BR BKN018 OVC030 FM301200 19007KT 2SM RA BR OVC009 FM301800 22012G20KT P6SM -RA OVC015